Markstay, Canada
Current Conditions -  °F | °C
As of 12:22 AM on Sunday 26 Oct 2014 (Local Time) from CYSB Reporting Station
Overcast Overcast  
Wind Chill: 36°   Ceiling: 2500
Heat Index: 41°   Visibility: 15mi
Dew Point: 37°   Wind: 7mph
Humidity: 87%   Direction: 300°WNW
Pressure: 29.52"   Gusts: NA
Location:  46.48°N, 80.53°W
Report Text: CYSB 260422Z 30006KT 15SM OVC025 05/03 A2952 RMK SC8 SLP004
Loading
Personal Weather Stations






























Interactive Weather Map
Tropical Storm Tracking
New forecast layout! Learn more

10-Day Weather Forecast

Advertisements
Track Severe Weather on mobile